Time;durP1;ratioP1;P1;durP2;ratioP2;P2;SDS_P1;SDS_P2;PMS_P1;PMS_P2;Temp;Humidity;BMP_temperature;BMP_pressure;BME280_temperature;BME280_humidity;BME280_pressure;Samples;Min_cycle;Max_cycle;Signal;HPM_P1;HPM_P2
2022/06/11 00:01:19;;;;;;;12.32;4.32;;;;;;;16.81;80.30;102034.41;4766803;30;20440;-77
2022/06/11 00:03:47;;;;;;;10.15;4.38;;;;;;;16.75;80.73;102040.78;4778490;30;20055;-77
2022/06/11 00:06:12;;;;;;;9.73;4.15;;;;;;;16.71;80.72;102034.63;4779431;30;20035;-77
2022/06/11 00:08:38;;;;;;;16.48;4.13;;;;;;;16.70;80.69;102042.72;4769809;30;20287;-77
2022/06/11 00:11:06;;;;;;;10.48;4.20;;;;;;;16.65;80.83;102032.13;4773295;30;20409;-77
2022/06/11 00:13:32;;;;;;;13.68;4.43;;;;;;;16.66;80.64;102036.56;4778717;30;20147;-77
2022/06/11 00:16:01;;;;;;;8.30;4.60;;;;;;;16.61;81.10;102041.16;4764823;30;20040;-76
2022/06/11 00:18:28;;;;;;;9.52;4.30;;;;;;;16.59;81.10;102042.13;4785873;29;20401;-77
2022/06/11 00:20:54;;;;;;;10.93;4.28;;;;;;;16.56;81.23;102046.63;4758722;30;20125;-77
2022/06/11 00:23:20;;;;;;;8.80;4.78;;;;;;;16.52;81.14;102039.63;4784659;30;20055;-76
2022/06/11 00:25:45;;;;;;;8.20;4.05;;;;;;;16.49;81.16;102041.50;4785877;29;20792;-77
2022/06/11 00:28:11;;;;;;;8.98;4.00;;;;;;;16.46;80.70;102036.25;4769826;30;20059;-77
2022/06/11 00:30:36;;;;;;;8.80;4.05;;;;;;;16.39;81.60;102042.66;4769717;30;20059;-77
2022/06/11 00:33:06;;;;;;;7.93;3.83;;;;;;;16.33;81.03;102033.91;4769715;30;20039;-76
2022/06/11 00:35:34;;;;;;;8.02;3.60;;;;;;;16.29;81.25;102034.88;4769844;30;20059;-77
2022/06/11 00:38:00;;;;;;;10.30;4.47;;;;;;;16.27;81.54;102039.44;4785837;30;20051;-77
2022/06/11 00:40:28;;;;;;;10.80;4.30;;;;;;;16.21;82.16;102023.53;4757022;30;20059;-77
2022/06/11 00:42:53;;;;;;;10.02;4.40;;;;;;;16.20;81.72;102027.13;4769527;30;20058;-77
2022/06/11 00:45:28;;;;;;;9.90;4.80;;;;;;;16.13;81.98;102029.09;4785810;30;20052;-77
2022/06/11 00:48:13;;;;;;;8.35;4.22;;;;;;;16.12;82.22;102029.13;4759689;30;20052;-77
2022/06/11 00:50:38;;;;;;;11.75;4.45;;;;;;;16.08;82.39;102025.66;4765387;30;20047;-77
2022/06/11 00:53:11;;;;;;;8.88;4.18;;;;;;;16.05;82.03;102031.09;4766636;30;20400;-77
2022/06/11 00:55:38;;;;;;;12.05;4.30;;;;;;;16.02;82.45;102025.84;4764284;30;20062;-77
2022/06/11 00:58:12;;;;;;;9.77;4.05;;;;;;;15.99;82.17;102030.34;4757630;30;20546;-77
2022/06/11 01:00:41;;;;;;;16.33;5.18;;;;;;;15.93;82.82;102028.72;4785750;30;20051;-77
2022/06/11 01:03:09;;;;;;;10.80;4.47;;;;;;;15.90;82.96;102029.69;4770594;29;20047;-77
2022/06/11 01:05:38;;;;;;;8.93;4.50;;;;;;;15.85;82.75;102023.59;4749553;30;20044;-77
2022/06/11 01:08:26;;;;;;;7.55;3.95;;;;;;;15.84;82.35;102027.16;4787273;29;20381;-77
2022/06/11 01:11:09;;;;;;;9.38;3.65;;;;;;;15.82;82.52;102023.63;4776567;30;20473;-77
2022/06/11 01:13:41;;;;;;;9.27;4.25;;;;;;;15.79;83.09;102026.38;4774052;30;20048;-77
2022/06/11 01:16:39;;;;;;;8.00;3.75;;;;;;;15.78;83.31;102027.31;4768429;30;20053;-77
2022/06/11 01:19:11;;;;;;;8.98;3.78;;;;;;;15.72;83.84;102024.78;4788928;29;20157;-77
2022/06/11 01:21:54;;;;;;;8.30;4.15;;;;;;;15.73;83.80;102029.22;4788398;30;20511;-77
2022/06/11 01:24:47;;;;;;;6.55;4.00;;;;;;;15.72;83.15;102027.44;4779080;29;20047;-77
2022/06/11 01:27:40;;;;;;;12.02;4.70;;;;;;;15.70;83.70;102029.28;4786161;30;20047;-77
2022/06/11 01:30:12;;;;;;;9.38;4.20;;;;;;;15.66;83.75;102028.44;4770162;30;20043;-77
2022/06/11 01:32:41;;;;;;;5.75;3.75;;;;;;;15.65;84.54;102031.16;4770455;30;20100;-77
2022/06/11 01:35:35;;;;;;;15.23;3.90;;;;;;;15.66;84.22;102028.44;4782555;29;20480;-77
2022/06/11 01:38:17;;;;;;;7.32;3.97;;;;;;;15.62;84.16;102028.56;4752544;30;20098;-78
2022/06/11 01:40:56;;;;;;;8.82;4.13;;;;;;;15.60;84.06;102033.06;4779740;29;20047;-78
2022/06/11 01:43:39;;;;;;;10.23;4.28;;;;;;;15.56;84.16;102023.38;4786540;30;20484;-78
2022/06/11 01:46:23;;;;;;;8.55;4.00;;;;;;;15.53;85.00;102021.66;4777491;30;20048;-78
2022/06/11 01:48:57;;;;;;;7.57;3.90;;;;;;;15.51;85.36;102022.63;4772232;30;20165;-78
2022/06/11 01:51:36;;;;;;;7.38;4.00;;;;;;;15.52;85.46;102021.69;4782715;30;20139;-78
2022/06/11 01:54:29;;;;;;;7.97;3.95;;;;;;;15.53;84.80;102020.75;4746806;30;20119;-78
2022/06/11 01:57:28;;;;;;;12.68;4.00;;;;;;;15.49;85.11;102020.84;4756793;30;20039;-78
2022/06/11 02:00:18;;;;;;;7.32;3.78;;;;;;;15.48;85.43;102029.78;4757058;30;20082;-78
2022/06/11 02:03:11;;;;;;;10.13;3.83;;;;;;;15.48;85.83;102024.44;4768866;30;20062;-78
2022/06/11 02:06:12;;;;;;;7.30;4.10;;;;;;;15.47;85.47;102029.81;4764071;30;20120;-78
2022/06/11 02:08:58;;;;;;;8.40;3.28;;;;;;;15.42;85.21;102021.91;4754020;30;20713;-78
2022/06/11 02:11:39;;;;;;;6.35;3.38;;;;;;;15.39;85.51;102023.78;4770274;30;20048;-78
2022/06/11 02:14:12;;;;;;;7.13;3.28;;;;;;;15.36;85.89;102022.06;4779140;30;20075;-78
2022/06/11 02:16:48;;;;;;;9.95;3.65;;;;;;;15.28;85.08;102021.31;4754010;30;20060;-78
2022/06/11 02:19:19;;;;;;;7.93;4.00;;;;;;;15.26;86.28;102021.38;4757485;30;20461;-78
2022/06/11 02:21:49;;;;;;;8.95;3.67;;;;;;;15.29;85.82;102022.22;4778188;30;20059;-78
2022/06/11 02:24:20;;;;;;;7.30;3.88;;;;;;;15.26;86.47;102017.84;4756858;30;20069;-78
2022/06/11 02:26:49;;;;;;;;;;;;;;;15.33;83.94;102026.56;4762919;30;20106;-78
2022/06/11 02:29:17;;;;;;;9.55;3.78;;;;;;;15.21;86.22;102028.63;4768522;30;20366;-79
2022/06/11 02:31:56;;;;;;;7.38;4.55;;;;;;;15.19;86.79;102026.91;4779842;30;20629;-78
2022/06/11 02:34:24;;;;;;;8.07;4.13;;;;;;;15.17;86.67;102028.72;4782287;30;20471;-79
2022/06/11 02:37:10;;;;;;;8.27;4.15;;;;;;;15.18;86.73;102033.13;4769670;30;20115;-78
2022/06/11 02:39:41;;;;;;;7.05;4.10;;;;;;;15.18;87.09;102042.03;4753678;30;20432;-78
2022/06/11 02:42:08;;;;;;;;;;;;;;;15.25;85.06;102038.28;4778796;30;20051;-78
2022/06/11 02:44:35;;;;;;;8.13;3.97;;;;;;;15.15;86.58;102044.75;4773672;30;20424;-79
2022/06/11 02:47:00;;;;;;;8.30;4.13;;;;;;;15.11;86.92;102044.84;4726171;30;20053;-78
2022/06/11 02:49:30;;;;;;;7.70;4.07;;;;;;;15.08;86.82;102051.13;4753154;30;20116;-79
2022/06/11 02:51:59;;;;;;;8.15;4.22;;;;;;;15.08;86.77;102048.44;4756042;30;20043;-78
2022/06/11 02:54:28;;;;;;;7.63;3.53;;;;;;;15.07;86.82;102053.84;4753400;30;20424;-78
2022/06/11 02:56:57;;;;;;;8.98;4.28;;;;;;;15.02;86.60;102054.81;4758495;30;20188;-78
2022/06/11 02:59:24;;;;;;;11.55;4.60;;;;;;;15.01;86.88;102054.84;4771285;30;20385;-78
2022/06/11 03:01:52;;;;;;;10.77;4.25;;;;;;;14.99;86.96;102064.69;4771095;30;20031;-78
2022/06/11 03:04:18;;;;;;;5.68;3.47;;;;;;;14.95;87.17;102058.50;4762291;30;20061;-78
2022/06/11 03:06:44;;;;;;;9.18;4.30;;;;;;;14.94;87.17;102059.44;4726908;30;20055;-78
2022/06/11 03:09:14;;;;;;;8.35;4.05;;;;;;;14.88;88.65;102064.88;4760581;30;20514;-78
2022/06/11 03:11:40;;;;;;;11.20;4.50;;;;;;;14.85;87.36;102062.28;4745356;30;20138;-78
2022/06/11 03:14:06;;;;;;;8.18;4.30;;;;;;;14.82;87.65;102063.22;4750298;30;20105;-78
2022/06/11 03:16:32;;;;;;;5.15;3.85;;;;;;;14.81;87.41;102061.47;4764428;30;20055;-87
2022/06/11 03:18:59;;;;;;;8.07;4.20;;;;;;;14.79;87.97;102059.75;4749042;30;20051;-87
2022/06/11 03:21:24;;;;;;;8.25;3.92;;;;;;;14.79;87.46;102062.41;4761323;30;20126;-86
2022/06/11 03:23:50;;;;;;;9.13;4.60;;;;;;;14.75;87.74;102076.69;4755951;30;20431;-86
2022/06/11 03:26:15;;;;;;;6.55;4.22;;;;;;;14.72;87.13;102074.09;4744727;30;20060;-87
2022/06/11 03:28:41;;;;;;;7.10;3.72;;;;;;;14.70;87.63;102068.78;4752783;30;20059;-86
2022/06/11 03:31:08;;;;;;;9.48;4.03;;;;;;;14.72;87.47;102079.44;4752584;30;20138;-87
2022/06/11 03:33:35;;;;;;;8.65;4.28;;;;;;;14.70;87.74;102079.47;4752946;30;20059;-86
2022/06/11 03:36:04;;;;;;;16.75;4.30;;;;;;;14.72;87.76;102072.31;4768759;30;20051;-86
2022/06/11 03:38:29;;;;;;;7.82;3.85;;;;;;;14.74;88.14;102078.50;4775719;30;20035;-86
2022/06/11 03:40:55;;;;;;;10.85;3.90;;;;;;;14.76;87.20;102082.03;4740674;30;20150;-85
2022/06/11 03:43:20;;;;;;;5.97;3.83;;;;;;;14.77;88.13;102082.88;4728813;30;20072;-86
2022/06/11 03:45:46;;;;;;;7.18;3.80;;;;;;;14.79;88.14;102086.41;4745612;30;20062;-86
2022/06/11 03:48:11;;;;;;;11.77;4.20;;;;;;;14.79;88.24;102086.41;4770431;29;20087;-86
2022/06/11 03:50:39;;;;;;;7.28;4.60;;;;;;;14.77;88.33;102091.75;4777582;30;20089;-86
2022/06/11 03:53:07;;;;;;;8.13;3.58;;;;;;;14.81;87.95;102103.22;4774177;30;20484;-86
2022/06/11 03:55:34;;;;;;;8.20;3.67;;;;;;;14.83;87.41;102101.44;4763713;30;20087;-87
2022/06/11 03:58:00;;;;;;;14.15;4.10;;;;;;;14.87;86.89;102102.25;4770057;30;20062;-86
2022/06/11 04:03:26;;;;;;;15.32;3.72;;;;;;;14.90;85.62;102112.88;4735050;30;20047;-87
2022/06/11 04:05:53;;;;;;;8.60;3.58;;;;;;;14.88;85.10;102109.34;4776374;30;20062;-87
2022/06/11 04:08:22;;;;;;;8.50;3.35;;;;;;;14.93;84.96;102116.34;4756413;30;20051;-86
2022/06/11 04:10:48;;;;;;;7.75;3.58;;;;;;;14.95;84.91;102116.31;4738046;30;20556;-86
2022/06/11 04:13:14;;;;;;;7.25;3.35;;;;;;;14.96;84.54;102112.72;4780232;30;20127;-86
2022/06/11 04:15:42;;;;;;;7.68;3.65;;;;;;;14.95;83.77;102116.31;4737556;30;20078;-86
2022/06/11 04:18:10;;;;;;;8.90;3.10;;;;;;;14.97;84.06;102125.16;4752088;30;20051;-87
2022/06/11 04:20:35;;;;;;;10.95;3.53;;;;;;;14.93;83.02;102121.66;4771910;30;20388;-86
2022/06/11 04:23:01;;;;;;;8.13;3.53;;;;;;;14.95;82.58;102117.19;4755008;29;20138;-87
2022/06/11 04:25:26;;;;;;;12.27;3.33;;;;;;;14.96;81.60;102126.06;4744327;30;20060;-86
2022/06/11 04:27:53;;;;;;;10.20;3.20;;;;;;;14.99;80.67;102126.91;4737240;30;20051;-87
2022/06/11 04:30:22;;;;;;;7.18;3.50;;;;;;;14.98;81.37;102127.78;4752098;30;20480;-86
2022/06/11 04:32:48;;;;;;;10.18;2.92;;;;;;;15.01;80.48;102133.09;4757861;30;20068;-86
2022/06/11 04:35:14;;;;;;;12.45;2.92;;;;;;;15.03;79.99;102136.63;4734573;30;20075;-86
2022/06/11 04:37:39;;;;;;;8.45;3.22;;;;;;;15.03;78.90;102138.38;4737527;30;20151;-86
2022/06/11 04:40:07;;;;;;;11.63;3.10;;;;;;;15.02;78.88;102139.28;4741024;30;20409;-86
2022/06/11 04:42:34;;;;;;;10.13;2.65;;;;;;;15.01;78.70;102137.56;4752938;30;20512;-86
2022/06/11 04:45:00;;;;;;;15.10;3.03;;;;;;;14.98;77.45;102141.13;4748515;30;20100;-86
2022/06/11 04:47:28;;;;;;;11.32;3.10;;;;;;;14.99;76.69;102136.69;4762087;30;20122;-87
2022/06/11 04:49:57;;;;;;;11.45;2.88;;;;;;;15.00;77.83;102139.31;4760707;30;20048;-86
2022/06/11 04:52:23;;;;;;;9.77;2.85;;;;;;;15.01;77.16;102143.75;4780377;30;20039;-86
2022/06/11 04:54:48;;;;;;;10.38;3.20;;;;;;;15.03;76.77;102149.03;4756464;30;20050;-86
2022/06/11 04:57:14;;;;;;;8.88;2.45;;;;;;;15.01;76.11;102149.09;4740987;30;20490;-86
2022/06/11 04:59:40;;;;;;;10.43;2.80;;;;;;;15.00;75.45;102141.09;4784140;29;20547;-86
2022/06/11 05:02:09;;;;;;;10.45;3.20;;;;;;;15.00;76.42;102139.31;4771286;30;20052;-86
2022/06/11 05:04:35;;;;;;;7.90;2.78;;;;;;;15.03;75.67;102149.03;4755498;30;20060;-86
2022/06/11 05:07:01;;;;;;;12.60;2.90;;;;;;;15.05;75.20;102142.78;4740222;30;20059;-85
2022/06/11 05:09:30;;;;;;;18.67;3.97;;;;;;;15.10;75.38;102140.00;4740654;30;20062;-86
2022/06/11 05:11:56;;;;;;;13.90;3.10;;;;;;;15.15;74.81;102150.59;4740719;30;20087;-86
2022/06/11 05:14:23;;;;;;;10.60;2.75;;;;;;;15.17;74.09;102140.78;4763215;30;20084;-86
2022/06/11 05:16:50;;;;;;;11.68;3.10;;;;;;;15.16;73.28;102139.91;4767458;30;20067;-86
2022/06/11 05:19:20;;;;;;;14.45;3.50;;;;;;;15.14;72.46;102157.72;4755224;30;20512;-86
2022/06/11 05:21:47;;;;;;;15.50;3.55;;;;;;;15.14;72.99;102146.19;4783711;30;20083;-86
2022/06/11 05:24:13;;;;;;;14.82;2.83;;;;;;;15.17;72.85;102160.31;4740352;30;20453;-86
2022/06/11 05:26:46;;;;;;;11.65;2.78;;;;;;;15.20;72.72;102143.38;4754899;30;20123;-85
2022/06/11 05:29:21;;;;;;;12.93;3.05;;;;;;;15.25;73.45;102153.03;4754933;30;20143;-86
2022/06/11 05:31:46;;;;;;;14.05;2.90;;;;;;;15.26;72.54;102149.47;4754753;30;20070;-85
2022/06/11 05:34:12;;;;;;;16.27;3.50;;;;;;;15.34;72.44;102151.13;4770964;29;20500;-85
2022/06/11 05:36:37;;;;;;;15.43;3.22;;;;;;;15.47;72.74;102160.59;4746037;30;20117;-85
2022/06/11 05:39:03;;;;;;;12.68;2.65;;;;;;;15.57;72.08;102158.63;4747014;30;20151;-85
2022/06/11 05:41:29;;;;;;;12.88;3.55;;;;;;;15.67;71.41;102145.03;4783518;30;20050;-86
2022/06/11 05:43:54;;;;;;;13.40;3.58;;;;;;;15.80;70.78;102156.38;4734472;30;20221;-85
2022/06/11 05:46:22;;;;;;;14.25;3.60;;;;;;;15.84;70.66;102159.84;4771892;29;20063;-85
2022/06/11 05:48:55;;;;;;;14.57;3.42;;;;;;;15.85;70.77;102162.47;4776644;29;20420;-85
2022/06/11 05:51:27;;;;;;;12.38;3.15;;;;;;;15.77;70.78;102156.41;4760536;30;20040;-85
2022/06/11 05:53:55;;;;;;;13.70;3.03;;;;;;;15.85;70.50;102159.81;4759424;30;20507;-85
2022/06/11 05:56:21;;;;;;;19.70;3.65;;;;;;;15.91;70.33;102166.81;4766874;30;20111;-85
2022/06/11 05:58:58;;;;;;;14.77;3.67;;;;;;;15.98;70.02;102160.41;4782248;30;20454;-85
2022/06/11 06:01:27;;;;;;;16.58;3.60;;;;;;;16.09;71.02;102161.00;4767039;30;20043;-85
2022/06/11 06:03:52;;;;;;;18.10;3.90;;;;;;;16.21;70.22;102167.84;4782243;30;20039;-85
2022/06/11 06:06:18;;;;;;;17.75;3.28;;;;;;;16.32;69.99;102168.50;4754353;30;20060;-85
2022/06/11 06:08:44;;;;;;;18.10;4.03;;;;;;;16.43;68.68;102165.53;4770236;30;20055;-85
2022/06/11 06:11:10;;;;;;;18.52;3.22;;;;;;;16.52;68.90;102169.78;4770418;30;20131;-85
2022/06/11 06:13:48;;;;;;;18.40;3.85;;;;;;;16.53;68.27;102175.09;4749461;30;20133;-85
2022/06/11 06:16:16;;;;;;;16.67;3.45;;;;;;;16.54;68.43;102167.94;4740933;30;20059;-85
2022/06/11 06:18:42;;;;;;;17.88;3.22;;;;;;;16.55;68.43;102162.56;4770261;30;20051;-85
2022/06/11 06:21:07;;;;;;;15.57;3.80;;;;;;;16.57;67.99;102170.56;4770219;30;20044;-86
2022/06/11 06:23:34;;;;;;;18.45;3.55;;;;;;;16.64;68.27;102174.81;4736809;30;20147;-86
2022/06/11 06:26:00;;;;;;;21.52;4.20;;;;;;;16.70;68.03;102173.78;4759827;30;20464;-86
2022/06/11 06:28:25;;;;;;;15.80;3.40;;;;;;;16.75;68.74;102179.88;4757527;30;20076;-85
2022/06/11 06:30:51;;;;;;;16.02;3.30;;;;;;;16.76;68.56;102170.91;4768750;30;20052;-85
2022/06/11 06:33:16;;;;;;;20.30;3.88;;;;;;;16.79;68.82;102172.66;4748585;30;20473;-85
2022/06/11 06:35:42;;;;;;;17.70;3.90;;;;;;;16.87;68.06;102176.91;4754343;30;20150;-85
2022/06/11 06:38:07;;;;;;;20.88;3.67;;;;;;;17.01;68.89;102175.66;4739127;30;20059;-85
2022/06/11 06:40:34;;;;;;;21.70;4.40;;;;;;;17.16;68.32;102181.47;4753685;30;20051;-85
2022/06/11 06:43:00;;;;;;;21.38;4.68;;;;;;;17.25;67.73;102183.00;4741208;30;20139;-85
2022/06/11 06:45:25;;;;;;;18.60;3.95;;;;;;;17.29;67.47;102189.16;4779835;30;20138;-85
2022/06/11 06:47:51;;;;;;;26.70;5.00;;;;;;;17.32;66.83;102189.94;4753806;30;20043;-85
2022/06/11 06:50:16;;;;;;;16.30;3.95;;;;;;;17.39;67.34;102179.94;4759473;30;20410;-86
2022/06/11 06:52:42;;;;;;;22.95;4.57;;;;;;;17.36;66.50;102188.94;4745245;30;20389;-85
2022/06/11 06:55:08;;;;;;;24.50;5.00;;;;;;;17.41;67.04;102183.44;4765818;30;20060;-85
2022/06/11 06:57:33;;;;;;;24.27;4.43;;;;;;;17.48;66.96;102185.03;4779069;29;20047;-84
2022/06/11 07:00:01;;;;;;;22.98;4.57;;;;;;;17.56;67.29;102177.63;4714384;30;20110;-86
2022/06/11 07:02:27;;;;;;;17.73;4.07;;;;;;;17.67;67.39;102179.13;4761156;30;20051;-85
2022/06/11 07:04:52;;;;;;;24.73;5.25;;;;;;;17.63;66.65;102189.94;4757704;30;20229;-85
2022/06/11 07:07:19;;;;;;;20.80;4.25;;;;;;;17.69;68.10;102182.63;4738518;30;20421;-85
2022/06/11 07:09:45;;;;;;;22.10;4.07;;;;;;;17.58;65.88;102183.84;4749994;30;20074;-85
2022/06/11 07:12:11;;;;;;;30.52;5.20;;;;;;;17.52;66.31;102188.47;4729035;30;20047;-86
2022/06/11 07:14:36;;;;;;;21.15;3.97;;;;;;;17.47;66.38;102193.09;4743051;30;20497;-85
2022/06/11 07:17:06;;;;;;;22.83;4.32;;;;;;;17.43;66.57;102194.97;4750384;30;20051;-83
2022/06/11 07:19:38;;;;;;;24.42;5.30;;;;;;;17.39;66.31;102194.19;4753029;30;20131;-85
2022/06/11 07:22:10;;;;;;;18.75;3.60;;;;;;;17.30;66.88;102180.19;4752651;30;20044;-84
2022/06/11 07:24:39;;;;;;;22.33;4.55;;;;;;;17.29;67.58;102183.81;4752704;30;20060;-85
2022/06/11 07:27:11;;;;;;;23.50;4.57;;;;;;;17.40;68.18;102179.00;4752562;30;20071;-84
2022/06/11 07:29:43;;;;;;;19.15;4.75;;;;;;;17.53;67.57;102179.50;4760611;30;20403;-85
2022/06/11 07:32:14;;;;;;;20.42;4.30;;;;;;;17.76;67.52;102178.84;4756747;30;20051;-85
2022/06/11 07:34:41;;;;;;;19.35;4.53;;;;;;;17.93;66.44;102179.22;4752784;30;20048;-77
2022/06/11 07:37:06;;;;;;;21.48;4.72;;;;;;;18.02;65.77;102180.72;4752674;30;20044;-77
2022/06/11 07:39:33;;;;;;;27.25;4.75;;;;;;;17.98;65.02;102185.31;4754416;30;20056;-77
2022/06/11 07:41:58;;;;;;;20.77;4.38;;;;;;;18.11;65.26;102184.94;4762820;30;20069;-77
2022/06/11 07:44:24;;;;;;;19.02;4.15;;;;;;;18.18;64.55;102178.44;4768371;30;20040;-78
2022/06/11 07:46:49;;;;;;;25.13;4.63;;;;;;;18.26;64.43;102187.97;4750494;30;20055;-77
2022/06/11 07:49:15;;;;;;;16.75;3.80;;;;;;;18.37;61.42;102186.75;4768129;30;20059;-77
2022/06/11 07:51:40;;;;;;;20.15;4.70;;;;;;;18.44;62.08;102183.81;4772072;30;20407;-78
2022/06/11 07:54:06;;;;;;;22.00;4.70;;;;;;;18.54;61.73;102188.88;4758097;30;20484;-77
2022/06/11 07:56:32;;;;;;;25.58;4.60;;;;;;;18.74;61.29;102182.81;4752291;30;20108;-77
2022/06/11 07:58:57;;;;;;;24.40;4.63;;;;;;;18.72;61.13;102193.63;4752291;30;20501;-76
2022/06/11 08:01:23;;;;;;;22.52;4.65;;;;;;;18.80;61.17;102191.56;4768434;30;20059;-77
2022/06/11 08:03:48;;;;;;;26.08;4.70;;;;;;;18.99;60.67;102193.59;4757567;30;20045;-77
2022/06/11 08:06:14;;;;;;;19.95;4.45;;;;;;;19.17;60.75;102192.97;4784846;30;20067;-77
2022/06/11 08:08:39;;;;;;;22.05;5.00;;;;;;;19.25;61.79;102198.03;4757223;30;20146;-77
2022/06/11 08:11:06;;;;;;;24.38;4.80;;;;;;;19.30;61.53;102196.94;4777202;30;20051;-78
2022/06/11 08:13:32;;;;;;;23.90;4.65;;;;;;;19.32;60.24;102188.84;4765549;30;20135;-77
2022/06/11 08:15:59;;;;;;;21.35;4.70;;;;;;;19.44;59.94;102200.94;4759484;30;20460;-76
2022/06/11 08:18:26;;;;;;;25.80;4.95;;;;;;;19.54;58.65;102203.22;4769210;30;20059;-76
2022/06/11 08:20:52;;;;;;;20.58;4.75;;;;;;;19.54;58.58;102215.78;4768127;30;20057;-77
2022/06/11 08:23:19;;;;;;;22.33;4.65;;;;;;;19.51;57.88;102213.19;4779261;30;20153;-77
2022/06/11 08:25:45;;;;;;;19.33;4.13;;;;;;;19.51;58.63;102213.19;4757113;30;20396;-77
2022/06/11 08:28:13;;;;;;;15.82;4.10;;;;;;;19.57;58.95;102202.22;4769639;30;20051;-77
2022/06/11 08:30:38;;;;;;;20.88;4.72;;;;;;;19.67;59.87;102210.81;4752375;30;20044;-77
2022/06/11 08:33:04;;;;;;;25.23;4.65;;;;;;;19.57;58.34;102217.47;4767881;30;20051;-77
2022/06/11 08:35:31;;;;;;;20.95;4.45;;;;;;;19.62;59.02;102218.16;4768156;30;20047;-77
2022/06/11 08:37:57;;;;;;;19.77;4.68;;;;;;;19.79;58.52;102212.19;4754584;30;20043;-77
2022/06/11 08:40:29;;;;;;;24.17;4.78;;;;;;;19.99;57.72;102214.97;4769860;30;20047;-77
2022/06/11 08:43:17;;;;;;;16.77;5.15;;;;;;;19.98;57.80;102223.97;4783818;30;20082;-77
2022/06/11 08:45:58;;;;;;;27.02;5.60;;;;;;;19.90;57.16;102221.56;4751543;30;20212;-77
2022/06/11 08:48:30;;;;;;;;;;;;;;;20.04;58.65;102217.47;4755022;30;20055;-77
2022/06/11 08:51:03;;;;;;;22.15;5.32;;;;;;;20.12;57.61;102226.97;4751642;30;19921;-77
2022/06/11 08:53:32;;;;;;;18.88;4.05;;;;;;;20.08;57.22;102225.34;4767810;30;20460;-76
2022/06/11 08:55:58;;;;;;;25.75;5.25;;;;;;;20.08;56.52;102219.06;4751628;30;20103;-77
2022/06/11 08:58:34;;;;;;;25.90;4.97;;;;;;;20.09;57.75;102220.84;4751386;30;20509;-77
2022/06/11 09:01:15;;;;;;;25.80;4.57;;;;;;;20.17;58.39;102222.28;4777707;30;20095;-77
2022/06/11 09:04:14;;;;;;;23.83;4.78;;;;;;;20.11;57.53;102217.16;4781181;30;20060;-77
2022/06/11 09:06:58;;;;;;;19.73;4.63;;;;;;;20.09;57.28;102215.47;4751384;30;20055;-77
2022/06/11 09:09:44;;;;;;;26.63;5.28;;;;;;;20.17;57.92;102216.03;4767871;30;20127;-76
2022/06/11 09:12:09;;;;;;;25.80;5.25;;;;;;;20.24;56.96;102214.84;4767643;30;20126;-77
2022/06/11 09:14:52;;;;;;;26.23;5.15;;;;;;;20.28;57.13;102216.50;4751519;30;20118;-78
2022/06/11 09:17:43;;;;;;;25.10;4.88;;;;;;;20.37;57.38;102216.09;4767459;30;20055;-77
2022/06/11 09:20:37;;;;;;;20.48;4.63;;;;;;;20.45;56.23;102218.50;4767779;30;20067;-77
2022/06/11 09:23:17;;;;;;;25.02;4.93;;;;;;;20.61;56.86;102213.34;4776813;29;20152;-76
2022/06/11 09:25:46;;;;;;;21.25;4.20;;;;;;;20.90;55.86;102212.13;4756360;30;20051;-77
2022/06/11 09:28:42;;;;;;;23.17;5.25;;;;;;;21.26;56.20;102209.63;4764487;30;20047;-77
2022/06/11 09:31:26;;;;;;;22.88;5.40;;;;;;;21.45;54.44;102209.69;4759409;30;20066;-77
2022/06/11 09:34:08;;;;;;;27.23;4.97;;;;;;;21.30;54.92;102215.72;4783439;29;20062;-77
2022/06/11 09:36:40;;;;;;;18.70;4.50;;;;;;;21.40;54.69;102211.72;4770772;30;20040;-77
2022/06/11 09:39:14;;;;;;;20.67;4.97;;;;;;;21.50;54.89;102208.59;4770897;30;20175;-77
2022/06/11 09:42:19;;;;;;;22.20;4.88;;;;;;;21.38;54.90;102210.00;4754750;30;20063;-77
2022/06/11 09:45:06;;;;;;;23.27;4.18;;;;;;;21.46;54.90;102207.84;4758054;29;20501;-77
2022/06/11 09:48:03;;;;;;;24.83;4.32;;;;;;;21.74;55.63;102212.84;4770766;30;20062;-77
2022/06/11 09:50:35;;;;;;;21.08;5.30;;;;;;;21.73;52.04;102215.59;4726550;30;20062;-77
2022/06/11 09:53:03;;;;;;;22.35;5.00;;;;;;;21.83;54.20;102217.78;4750099;30;20075;-77
2022/06/11 09:55:43;;;;;;;28.33;6.25;;;;;;;22.05;53.77;102214.06;4754534;30;20137;-76
2022/06/11 09:58:27;;;;;;;27.13;5.83;;;;;;;22.05;53.49;102214.06;4782965;29;20055;-77
2022/06/11 10:00:57;;;;;;;25.00;5.50;;;;;;;21.89;52.62;102217.50;4779420;30;20054;-77
2022/06/11 10:03:47;;;;;;;25.30;5.57;;;;;;;21.88;53.45;102206.78;4744959;30;20052;-77
2022/06/11 10:06:19;;;;;;;19.58;4.82;;;;;;;21.69;52.73;102210.38;4781031;30;20043;-77
2022/06/11 10:08:51;;;;;;;26.70;5.18;;;;;;;21.51;53.93;102208.50;4752215;30;20056;-77
2022/06/11 10:11:44;;;;;;;22.35;5.05;;;;;;;21.33;54.20;102212.03;4754112;30;20052;-77
2022/06/11 10:14:45;;;;;;;20.60;3.95;;;;;;;21.44;49.75;102213.31;4759284;30;20051;-77
2022/06/11 10:17:44;;;;;;;16.23;4.10;;;;;;;21.75;48.57;102211.88;4768325;30;20067;-77
2022/06/11 10:20:21;;;;;;;16.40;3.58;;;;;;;21.93;48.56;102209.25;4715781;30;20056;-77
2022/06/11 10:22:58;;;;;;;16.55;4.38;;;;;;;22.03;48.49;102211.47;4761373;30;20072;-77
2022/06/11 10:25:50;;;;;;;14.30;3.80;;;;;;;22.07;48.70;102215.75;4756391;30;20059;-77
2022/06/11 10:28:44;;;;;;;20.15;4.65;;;;;;;22.19;49.46;102205.31;4770167;30;20408;-77
2022/06/11 10:31:17;;;;;;;21.60;4.32;;;;;;;22.36;49.88;102218.88;4746223;30;20056;-77
2022/06/11 10:34:00;;;;;;;18.52;4.30;;;;;;;22.61;49.40;102214.94;4769910;30;20108;-77
2022/06/11 10:36:32;;;;;;;24.90;4.75;;;;;;;22.52;47.76;102211.75;4753168;30;20047;-77
2022/06/11 10:39:00;;;;;;;18.10;4.78;;;;;;;22.57;49.38;102214.22;4769884;30;20087;-77
2022/06/11 10:41:46;;;;;;;19.52;4.72;;;;;;;22.61;48.09;102212.25;4773229;30;20057;-77
2022/06/11 10:44:47;;;;;;;25.40;4.47;;;;;;;22.56;48.78;102217.88;4788035;29;20066;-77
2022/06/11 10:47:37;;;;;;;26.70;4.68;;;;;;;22.65;48.14;102216.53;4760745;29;20101;-77
2022/06/11 10:50:09;;;;;;;22.27;5.00;;;;;;;22.57;46.64;102207.94;4761961;30;20042;-76
2022/06/11 10:52:37;;;;;;;23.15;4.88;;;;;;;22.84;48.15;102203.81;4777040;30;20312;-77
2022/06/11 10:55:06;;;;;;;20.25;4.03;;;;;;;23.00;47.97;102203.94;4757289;30;20063;-77
2022/06/11 10:57:34;;;;;;;21.10;4.28;;;;;;;23.27;47.42;102198.91;4762119;30;20084;-77
2022/06/11 11:00:14;;;;;;;21.67;4.18;;;;;;;23.48;47.07;102207.66;4782203;30;20052;-76
2022/06/11 11:02:48;;;;;;;15.98;4.15;;;;;;;23.69;46.04;102208.31;4753571;30;20048;-77
2022/06/11 11:05:16;;;;;;;18.50;4.78;;;;;;;23.87;47.19;102211.88;4769449;30;20070;-77
2022/06/11 11:07:55;;;;;;;22.52;4.57;;;;;;;23.99;46.37;102204.91;4769399;30;20123;-77
2022/06/11 11:10:23;;;;;;;21.50;4.45;;;;;;;23.62;46.16;102204.22;4753641;30;20131;-77
2022/06/11 11:12:55;;;;;;;27.73;4.43;;;;;;;23.33;47.56;102203.09;4762402;30;20051;-77
2022/06/11 11:15:26;;;;;;;20.15;4.60;;;;;;;23.14;47.73;102205.91;4767749;30;20047;-77
2022/06/11 11:17:55;;;;;;;17.60;4.82;;;;;;;23.08;47.47;102203.53;4769210;30;20159;-77
2022/06/11 11:20:34;;;;;;;17.90;4.50;;;;;;;23.20;48.77;102197.50;4782015;29;20114;-78
2022/06/11 11:23:09;;;;;;;19.85;4.60;;;;;;;23.51;46.99;102187.69;4753261;30;20423;-77
2022/06/11 11:25:59;;;;;;;18.02;4.55;;;;;;;23.91;46.50;102199.91;4753231;30;20055;-77
2022/06/11 11:28:52;;;;;;;18.48;3.95;;;;;;;24.06;45.76;102189.16;4753175;30;20052;-77
2022/06/11 11:31:28;;;;;;;20.52;4.32;;;;;;;24.13;45.85;102194.13;4762356;30;20079;-77
2022/06/11 11:34:14;;;;;;;19.80;4.82;;;;;;;24.18;44.20;102199.28;4766809;30;20051;-77
2022/06/11 11:36:59;;;;;;;19.60;4.55;;;;;;;24.23;44.46;102198.06;4774082;29;20050;-78
2022/06/11 11:39:30;;;;;;;18.00;4.50;;;;;;;24.39;44.94;102192.63;4732180;30;20062;-79
2022/06/11 11:42:04;;;;;;;23.05;4.60;;;;;;;24.43;45.32;102187.88;4741859;30;20048;-79
2022/06/11 11:44:35;;;;;;;18.63;4.18;;;;;;;24.35;44.73;102196.47;4716475;30;20057;-79